Time;durP1;ratioP1;P1;durP2;ratioP2;P2;SDS_P1;SDS_P2;PMS_P1;PMS_P2;Temp;Humidity;BMP_temperature;BMP_pressure;BME280_temperature;BME280_humidity;BME280_pressure;Samples;Min_cycle;Max_cycle;Signal;HPM_P1;HPM_P2
2021/10/12 00:00:50;;;;;;;6.73;3.27;;;;;;;6.57;100.00;101075.38;4981663;28;20221;-73
2021/10/12 00:03:17;;;;;;;7.83;2.93;;;;;;;6.51;100.00;101075.41;4993480;28;20220;-72
2021/10/12 00:05:46;;;;;;;5.30;2.80;;;;;;;6.48;100.00;101084.91;4979216;28;20205;-72
2021/10/12 00:08:13;;;;;;;4.80;2.67;;;;;;;6.42;100.00;101084.06;4986872;28;20640;-72
2021/10/12 00:10:39;;;;;;;6.80;2.87;;;;;;;6.39;100.00;101083.19;4978848;28;20197;-72
2021/10/12 00:13:06;;;;;;;5.90;3.17;;;;;;;6.34;100.00;101072.84;4978059;28;20205;-73
2021/10/12 00:15:33;;;;;;;6.13;3.13;;;;;;;6.30;100.00;101081.47;4983390;28;20271;-72
2021/10/12 00:17:59;;;;;;;11.73;5.70;;;;;;;6.24;100.00;101074.59;4973570;28;20225;-73
2021/10/12 00:20:25;;;;;;;4.67;3.10;;;;;;;6.21;100.00;101077.16;4981564;28;20221;-73
2021/10/12 00:22:53;;;;;;;5.50;2.87;;;;;;;6.17;100.00;101072.00;4979947;28;20717;-71
2021/10/12 00:25:20;;;;;;;12.03;3.10;;;;;;;6.13;100.00;101070.28;4983036;28;20205;-73
2021/10/12 00:27:46;;;;;;;6.37;2.57;;;;;;;6.11;100.00;101070.28;4979871;28;20891;-73
2021/10/12 00:30:15;;;;;;;8.03;3.33;;;;;;;6.07;100.00;101072.00;4983411;28;20288;-73
2021/10/12 00:32:41;;;;;;;12.33;3.17;;;;;;;6.06;100.00;101066.81;4979158;28;20232;-72
2021/10/12 00:35:09;;;;;;;6.73;3.07;;;;;;;6.08;100.00;101070.25;4980855;28;20212;-73
2021/10/12 00:37:35;;;;;;;6.77;3.33;;;;;;;6.04;100.00;101063.38;4982156;28;20206;-73
2021/10/12 00:40:04;;;;;;;9.80;3.03;;;;;;;6.06;100.00;101065.09;4982305;28;20314;-73
2021/10/12 00:42:30;;;;;;;13.03;3.13;;;;;;;5.99;100.00;101062.50;4977317;28;20224;-73
2021/10/12 00:44:58;;;;;;;4.93;3.50;;;;;;;5.99;100.00;101050.41;4985279;28;20203;-73
2021/10/12 00:47:24;;;;;;;7.87;3.23;;;;;;;6.03;100.00;101061.63;4981654;28;20201;-72
2021/10/12 00:49:50;;;;;;;5.80;3.07;;;;;;;6.02;100.00;101057.34;4984790;28;20544;-71
2021/10/12 00:52:17;;;;;;;13.93;3.10;;;;;;;6.01;100.00;101059.03;4977739;28;20208;-73
2021/10/12 00:54:43;;;;;;;7.53;3.43;;;;;;;5.97;100.00;101046.13;4980018;28;20209;-73
2021/10/12 00:57:11;;;;;;;9.77;6.67;;;;;;;5.99;100.00;101041.81;4976154;28;20214;-72
2021/10/12 00:59:40;;;;;;;9.03;2.73;;;;;;;5.93;100.00;101040.06;4982803;28;20567;-74
2021/10/12 01:02:07;;;;;;;6.87;3.23;;;;;;;5.89;100.00;101040.91;4976169;28;20227;-73
2021/10/12 01:04:33;;;;;;;13.40;8.83;;;;;;;5.84;100.00;101037.44;4978213;28;20677;-72
2021/10/12 01:07:02;;;;;;;8.43;2.80;;;;;;;5.77;100.00;101035.72;4979843;28;20205;-72
2021/10/12 01:09:28;;;;;;;21.17;12.43;;;;;;;5.71;100.00;101033.16;4985102;28;20232;-73
2021/10/12 01:11:55;;;;;;;6.00;2.73;;;;;;;5.64;100.00;101035.72;4978481;28;20201;-72
2021/10/12 01:14:23;;;;;;;7.17;2.80;;;;;;;5.58;100.00;101034.88;4976144;28;20209;-72
2021/10/12 01:16:49;;;;;;;5.73;2.43;;;;;;;5.56;100.00;101033.97;4981232;28;20205;-72
2021/10/12 01:19:16;;;;;;;5.63;3.00;;;;;;;5.52;100.00;101032.25;4978032;28;20701;-73
2021/10/12 01:21:46;;;;;;;14.87;5.83;;;;;;;5.48;100.00;101032.25;4980256;28;20224;-73
2021/10/12 01:24:13;;;;;;;6.40;3.07;;;;;;;5.43;100.00;101028.78;4981772;28;20198;-73
2021/10/12 01:26:40;;;;;;;7.50;3.13;;;;;;;5.38;100.00;101024.47;4982429;28;20196;-72
2021/10/12 01:29:08;;;;;;;7.20;3.07;;;;;;;5.33;100.00;101024.50;4978007;28;20238;-72
2021/10/12 01:31:35;;;;;;;4.43;2.67;;;;;;;5.28;100.00;101018.44;4982629;28;20212;-73
2021/10/12 01:34:01;;;;;;;7.13;2.63;;;;;;;5.22;100.00;101021.84;4980286;28;20216;-72
2021/10/12 01:36:29;;;;;;;8.30;2.93;;;;;;;5.15;100.00;101017.53;4980116;28;20225;-71
2021/10/12 01:38:57;;;;;;;9.20;3.10;;;;;;;5.13;100.00;101014.09;4973842;28;20232;-73
2021/10/12 01:41:23;;;;;;;6.13;2.93;;;;;;;5.10;100.00;101014.06;4976491;28;20222;-72
2021/10/12 01:43:49;;;;;;;8.43;2.77;;;;;;;5.07;100.00;101009.78;4978506;28;20201;-71
2021/10/12 01:46:16;;;;;;;6.20;3.10;;;;;;;5.02;100.00;101002.88;4984447;28;20202;-73
2021/10/12 01:48:42;;;;;;;5.70;2.50;;;;;;;4.96;100.00;101008.00;4979029;28;20235;-75
2021/10/12 01:51:09;;;;;;;4.47;2.63;;;;;;;4.92;100.00;100999.38;4980960;28;20193;-74
2021/10/12 01:53:35;;;;;;;7.17;2.60;;;;;;;4.92;100.00;100996.81;4981486;28;20216;-74
2021/10/12 01:56:04;;;;;;;7.70;2.03;;;;;;;4.91;100.00;100997.69;4976386;28;20216;-74
2021/10/12 01:58:30;;;;;;;5.27;2.80;;;;;;;4.90;100.00;100996.78;4976217;28;20235;-75
2021/10/12 02:00:57;;;;;;;5.70;2.43;;;;;;;4.87;100.00;100991.63;4978203;28;20213;-74
2021/10/12 02:03:24;;;;;;;4.07;2.20;;;;;;;4.90;100.00;100980.44;4975058;28;20205;-74
2021/10/12 02:05:50;;;;;;;10.50;2.60;;;;;;;4.88;100.00;100982.16;4983244;28;20209;-74
2021/10/12 02:08:16;;;;;;;6.67;3.03;;;;;;;4.85;100.00;100983.00;4980884;28;20797;-73
2021/10/12 02:10:43;;;;;;;5.10;2.50;;;;;;;4.83;100.00;100982.13;4982364;28;20582;-74
2021/10/12 02:13:10;;;;;;;14.93;3.30;;;;;;;4.81;100.00;100976.09;4979089;28;20635;-75
2021/10/12 02:15:37;;;;;;;11.10;3.47;;;;;;;4.85;100.00;100974.38;4972688;28;20586;-74
2021/10/12 02:18:04;;;;;;;8.77;3.10;;;;;;;4.85;100.00;100969.22;4979397;28;20218;-74
2021/10/12 02:20:30;;;;;;;6.60;3.13;;;;;;;4.78;100.00;100973.50;4978402;28;20885;-74
2021/10/12 02:22:57;;;;;;;7.57;3.23;;;;;;;4.74;100.00;100967.47;4977683;28;20665;-74
2021/10/12 02:25:23;;;;;;;8.20;3.27;;;;;;;4.73;100.00;100965.75;4978961;28;20212;-74
2021/10/12 02:27:50;;;;;;;15.27;4.43;;;;;;;4.69;100.00;100969.16;4981054;28;20229;-75
2021/10/12 02:30:17;;;;;;;9.60;3.63;;;;;;;4.67;100.00;100962.28;4982249;28;20212;-72
2021/10/12 02:32:44;;;;;;;7.60;4.13;;;;;;;4.64;100.00;100960.53;4981741;28;20208;-72
2021/10/12 02:35:10;;;;;;;13.03;4.37;;;;;;;4.63;100.00;100955.38;4978820;28;20209;-73
2021/10/12 02:37:37;;;;;;;13.90;4.43;;;;;;;4.61;100.00;100949.31;4976136;28;20265;-74
2021/10/12 02:40:04;;;;;;;11.10;4.40;;;;;;;4.56;100.00;100939.00;4975841;28;20224;-72
2021/10/12 02:42:30;;;;;;;8.37;4.57;;;;;;;4.51;100.00;100941.56;4981364;28;20221;-72
2021/10/12 02:44:57;;;;;;;7.57;4.27;;;;;;;4.50;100.00;100941.53;4978766;28;20201;-71
2021/10/12 02:47:24;;;;;;;8.87;4.57;;;;;;;4.49;100.00;100943.28;4978199;28;20290;-73
2021/10/12 02:49:51;;;;;;;9.43;4.70;;;;;;;4.44;100.00;100939.81;4975559;28;20220;-72
2021/10/12 02:52:17;;;;;;;12.37;4.70;;;;;;;4.43;100.00;100935.50;4980790;28;20200;-73
2021/10/12 02:54:43;;;;;;;11.50;5.80;;;;;;;4.44;100.00;100929.47;4980526;28;20213;-72
2021/10/12 02:57:10;;;;;;;8.47;4.87;;;;;;;4.46;100.00;100937.22;4975042;28;20210;-72
2021/10/12 02:59:36;;;;;;;10.10;5.10;;;;;;;4.53;100.00;100932.09;4981510;28;20229;-73
2021/10/12 03:02:03;;;;;;;14.30;5.50;;;;;;;4.60;100.00;100922.66;4987428;28;20213;-73
2021/10/12 03:04:30;;;;;;;17.17;6.03;;;;;;;4.67;100.00;100920.94;4981921;28;20308;-73
2021/10/12 03:06:56;;;;;;;11.93;5.97;;;;;;;4.71;100.00;100917.50;4989210;28;20582;-71
2021/10/12 03:09:23;;;;;;;21.23;7.00;;;;;;;4.68;100.00;100914.94;4981212;28;20646;-72
2021/10/12 03:11:49;;;;;;;19.00;6.40;;;;;;;4.65;100.00;100904.59;4975029;28;21026;-72
2021/10/12 03:14:15;;;;;;;20.53;6.33;;;;;;;4.65;100.00;100905.44;4979894;28;20201;-72
2021/10/12 03:16:42;;;;;;;12.53;6.33;;;;;;;4.68;100.00;100902.03;4987028;28;20205;-73
2021/10/12 03:19:11;;;;;;;11.43;5.57;;;;;;;4.67;100.00;100903.72;4981572;28;20228;-73
2021/10/12 03:21:44;;;;;;;12.53;5.83;;;;;;;4.63;100.00;100908.91;4977348;28;20311;-72
2021/10/12 03:24:10;;;;;;;15.40;5.80;;;;;;;4.57;100.00;100901.97;4978733;28;20202;-75
2021/10/12 03:26:36;;;;;;;15.50;5.83;;;;;;;4.50;100.00;100901.13;4982452;28;20205;-75
2021/10/12 03:29:04;;;;;;;15.97;6.07;;;;;;;4.47;100.00;100887.34;4982626;28;20217;-75
2021/10/12 03:31:31;;;;;;;11.40;5.90;;;;;;;4.45;100.00;100892.50;4983709;28;20201;-75
2021/10/12 03:33:57;;;;;;;13.70;5.60;;;;;;;4.40;100.00;100882.97;4984868;28;20204;-74
2021/10/12 03:36:23;;;;;;;12.50;5.73;;;;;;;4.39;100.00;100879.53;4976268;28;20208;-75
2021/10/12 03:38:51;;;;;;;13.40;5.07;;;;;;;4.27;100.00;100870.03;5013302;22;20242;-75
2021/10/12 03:41:17;;;;;;;12.70;5.87;;;;;;;4.23;100.00;100878.63;5030615;28;20208;-73
2021/10/12 03:43:44;;;;;;;10.73;6.07;;;;;;;4.22;100.00;100873.44;5022776;28;20208;-75
2021/10/12 03:46:12;;;;;;;16.47;6.37;;;;;;;4.24;100.00;100870.03;5023078;28;20200;-75
2021/10/12 03:48:38;;;;;;;16.80;7.23;;;;;;;4.20;100.00;100870.84;5022830;28;20228;-73
2021/10/12 03:51:07;;;;;;;17.20;7.00;;;;;;;4.25;100.00;100879.50;5023642;28;20203;-75
2021/10/12 03:53:33;;;;;;;15.93;6.53;;;;;;;4.26;100.00;100880.38;5024060;28;20207;-75
2021/10/12 03:56:01;;;;;;;21.77;7.50;;;;;;;4.27;100.00;100877.78;5022965;28;20296;-73
2021/10/12 03:58:28;;;;;;;18.33;7.30;;;;;;;4.27;100.00;100875.19;5024026;28;20896;-75
2021/10/12 04:00:54;;;;;;;23.23;8.30;;;;;;;4.25;100.00;100882.06;5023772;28;20196;-74
2021/10/12 04:03:20;;;;;;;18.20;7.37;;;;;;;4.27;100.00;100877.78;5023227;28;20223;-75
2021/10/12 04:05:47;;;;;;;14.50;7.33;;;;;;;4.31;100.00;100878.63;5024481;28;20608;-75
2021/10/12 04:08:13;;;;;;;24.97;7.70;;;;;;;4.22;100.00;100876.03;5023530;28;20225;-75
2021/10/12 04:10:40;;;;;;;28.23;8.33;;;;;;;4.24;100.00;100867.47;5022944;28;20207;-75
2021/10/12 04:13:08;;;;;;;18.37;7.83;;;;;;;4.21;100.00;100867.44;5022851;28;20203;-75
2021/10/12 04:15:35;;;;;;;19.33;8.37;;;;;;;4.21;100.00;100859.69;5020856;28;20649;-74
2021/10/12 04:18:02;;;;;;;21.13;7.63;;;;;;;4.22;100.00;100866.59;5027249;28;20709;-75
2021/10/12 04:20:28;;;;;;;20.80;8.50;;;;;;;4.27;100.00;100861.44;5021852;28;20208;-74
2021/10/12 04:22:57;;;;;;;23.87;8.67;;;;;;;4.31;100.00;100863.16;5023686;28;20220;-75
2021/10/12 04:25:24;;;;;;;25.40;9.20;;;;;;;4.38;100.00;100858.88;5019535;28;20559;-75
2021/10/12 04:27:51;;;;;;;22.90;9.00;;;;;;;4.48;100.00;100853.75;5022341;28;20200;-75
2021/10/12 04:30:19;;;;;;;22.53;9.53;;;;;;;4.58;100.00;100857.22;5022194;28;20291;-75
2021/10/12 04:32:46;;;;;;;29.97;10.30;;;;;;;4.67;100.00;100848.63;5024204;28;20211;-73
2021/10/12 04:35:12;;;;;;;27.07;11.17;;;;;;;4.74;100.00;100852.94;5021705;28;20625;-74
2021/10/12 04:37:38;;;;;;;24.27;10.87;;;;;;;4.76;100.00;100850.38;5024579;28;20207;-75
2021/10/12 04:40:06;;;;;;;31.57;10.30;;;;;;;4.77;100.00;100841.75;5020024;28;20232;-75
2021/10/12 04:42:32;;;;;;;25.13;10.43;;;;;;;4.79;100.00;100842.63;5024300;28;20218;-75
2021/10/12 04:44:59;;;;;;;24.67;9.60;;;;;;;4.84;100.00;100839.19;5022904;28;20211;-75
2021/10/12 04:47:27;;;;;;;28.30;10.60;;;;;;;4.95;100.00;100846.09;5022883;28;20208;-75
2021/10/12 04:49:53;;;;;;;31.77;10.90;;;;;;;4.98;100.00;100840.91;5021175;28;20700;-75
2021/10/12 04:52:19;;;;;;;27.23;10.57;;;;;;;5.08;100.00;100830.59;5023271;28;21130;-74
2021/10/12 04:54:46;;;;;;;29.33;10.13;;;;;;;5.15;100.00;100838.31;5022378;28;20211;-74
2021/10/12 04:57:12;;;;;;;33.97;11.53;;;;;;;5.18;100.00;100834.00;5022711;28;20219;-74
2021/10/12 04:59:38;;;;;;;29.27;11.47;;;;;;;5.22;100.00;100824.53;5021249;28;20220;-75
2021/10/12 05:02:05;;;;;;;32.63;11.40;;;;;;;5.22;100.00;100829.69;5021657;28;20282;-73
2021/10/12 05:04:32;;;;;;;25.80;11.10;;;;;;;5.20;100.00;100827.09;5023990;28;20578;-75
2021/10/12 05:06:59;;;;;;;32.07;11.33;;;;;;;5.21;100.00;100821.09;5021094;28;20222;-73
2021/10/12 05:09:26;;;;;;;30.33;11.73;;;;;;;5.23;100.00;100818.50;5021064;28;20262;-75
2021/10/12 05:11:53;;;;;;;34.67;12.00;;;;;;;5.27;100.00;100818.47;5018000;28;20208;-75
2021/10/12 05:14:19;;;;;;;27.90;11.57;;;;;;;5.32;100.00;100821.94;5024205;28;20207;-76
2021/10/12 05:16:48;;;;;;;31.97;12.63;;;;;;;5.38;100.00;100815.91;5021753;28;20213;-74
2021/10/12 05:19:15;;;;;;;35.30;13.23;;;;;;;5.46;100.00;100806.38;5023224;28;20226;-75
2021/10/12 05:21:42;;;;;;;32.53;13.17;;;;;;;5.52;100.00;100810.69;5018645;28;20689;-75
2021/10/12 05:24:09;;;;;;;31.23;12.97;;;;;;;5.55;100.00;100807.25;5019313;28;20215;-75
2021/10/12 05:26:35;;;;;;;29.90;12.47;;;;;;;5.58;100.00;100804.66;5019767;28;20215;-74
2021/10/12 05:29:02;;;;;;;32.53;12.83;;;;;;;5.61;100.00;100802.03;5020714;28;20220;-75
2021/10/12 05:31:28;;;;;;;35.63;13.00;;;;;;;5.66;100.00;100802.88;5020753;28;20311;-75
2021/10/12 05:33:55;;;;;;;31.10;12.33;;;;;;;5.65;100.00;100785.66;5019833;28;20681;-75
2021/10/12 05:36:21;;;;;;;27.43;12.90;;;;;;;5.64;100.00;100787.38;5021419;28;20199;-75
2021/10/12 05:38:49;;;;;;;36.60;13.63;;;;;;;5.65;100.00;100796.00;5020973;28;20680;-75
2021/10/12 05:41:16;;;;;;;32.27;12.87;;;;;;;5.72;100.00;100789.06;5021578;28;20718;-75
2021/10/12 05:43:42;;;;;;;33.60;13.77;;;;;;;5.80;100.00;100775.22;5021538;28;20225;-75
2021/10/12 05:46:09;;;;;;;30.43;13.20;;;;;;;5.84;100.00;100771.78;5020650;28;20228;-75
2021/10/12 05:48:35;;;;;;;29.10;13.47;;;;;;;5.85;100.00;100770.91;5022219;28;21924;-74
2021/10/12 05:51:02;;;;;;;30.73;11.67;;;;;;;5.87;100.00;100776.97;5018731;28;20202;-74
2021/10/12 05:53:31;;;;;;;27.37;11.10;;;;;;;5.88;100.00;100767.47;5022219;28;20212;-75
2021/10/12 05:56:05;;;;;;;30.97;11.47;;;;;;;5.88;100.00;100764.88;5019844;28;20671;-76
2021/10/12 05:58:34;;;;;;;22.00;10.87;;;;;;;5.95;100.00;100773.47;5020099;28;20229;-76
2021/10/12 06:01:01;;;;;;;29.00;11.67;;;;;;;6.01;100.00;100769.13;5018501;28;20208;-73
2021/10/12 06:03:28;;;;;;;27.30;11.27;;;;;;;6.08;100.00;100764.78;5020113;28;20216;-76
2021/10/12 06:05:55;;;;;;;27.70;10.23;;;;;;;6.14;100.00;100764.78;5021124;28;20200;-76
2021/10/12 06:08:22;;;;;;;24.77;9.50;;;;;;;6.19;100.00;100756.97;5021048;28;20232;-76
2021/10/12 06:10:49;;;;;;;29.03;9.97;;;;;;;6.23;100.00;100754.34;5023485;28;20208;-76
2021/10/12 06:13:17;;;;;;;25.63;9.80;;;;;;;6.27;100.00;100757.78;5020779;28;20677;-75
2021/10/12 06:15:45;;;;;;;22.27;9.57;;;;;;;6.30;100.00;100756.88;5024683;28;20196;-76
2021/10/12 06:18:11;;;;;;;21.73;8.40;;;;;;;6.32;100.00;100760.34;5019118;28;20592;-75
2021/10/12 06:20:38;;;;;;;14.27;7.33;;;;;;;6.30;100.00;100755.19;5037571;28;20262;-76
2021/10/12 06:23:04;;;;;;;16.50;7.77;;;;;;;6.32;100.00;100755.19;5022180;28;20215;-76
2021/10/12 06:25:31;;;;;;;26.80;7.73;;;;;;;6.36;100.00;100741.31;5025555;28;20223;-76
2021/10/12 06:27:57;;;;;;;14.90;7.70;;;;;;;6.41;100.00;100742.16;5024802;28;20206;-75
2021/10/12 06:30:25;;;;;;;20.67;6.97;;;;;;;6.44;100.00;100744.72;5026651;28;20232;-74
2021/10/12 06:32:51;;;;;;;20.43;6.13;;;;;;;6.47;100.00;100742.09;5022753;28;20322;-74
2021/10/12 06:35:18;;;;;;;14.90;5.83;;;;;;;6.50;100.00;100742.09;5026689;28;20827;-74
2021/10/12 06:37:44;;;;;;;14.93;5.67;;;;;;;6.52;100.00;100748.09;5024327;28;20204;-74
2021/10/12 06:40:13;;;;;;;12.00;5.03;;;;;;;6.58;100.00;100748.06;5023269;28;20243;-75
2021/10/12 06:42:39;;;;;;;10.33;4.90;;;;;;;6.64;100.00;100739.38;5020942;28;20216;-76
2021/10/12 06:45:06;;;;;;;13.77;5.60;;;;;;;6.71;100.00;100750.56;5025783;28;20208;-74
2021/10/12 06:47:33;;;;;;;10.93;4.47;;;;;;;6.70;100.00;100734.16;5024718;28;20208;-76
2021/10/12 06:50:00;;;;;;;11.40;4.23;;;;;;;6.76;100.00;100741.03;5025321;28;20806;-75
2021/10/12 06:52:26;;;;;;;6.37;4.13;;;;;;;6.76;100.00;100739.28;5024930;28;20589;-75
2021/10/12 06:54:52;;;;;;;13.20;4.10;;;;;;;6.80;100.00;100743.56;5025578;28;20204;-76
2021/10/12 06:57:19;;;;;;;9.17;4.33;;;;;;;6.82;100.00;100728.00;5025041;28;20856;-76
2021/10/12 06:59:45;;;;;;;10.80;3.87;;;;;;;6.86;100.00;100723.66;5023666;28;20231;-75
2021/10/12 07:02:12;;;;;;;10.43;3.77;;;;;;;6.85;100.00;100727.97;5024272;28;20580;-75
2021/10/12 07:04:40;;;;;;;11.87;3.73;;;;;;;6.92;100.00;100727.03;5022706;28;20212;-74
2021/10/12 07:07:06;;;;;;;12.13;3.87;;;;;;;6.96;100.00;100723.53;5023590;28;20784;-75
2021/10/12 07:09:32;;;;;;;9.83;3.13;;;;;;;7.00;100.00;100721.78;5023768;28;20220;-74
2021/10/12 07:11:59;;;;;;;6.00;3.17;;;;;;;7.06;100.00;100716.53;5024917;28;20223;-76
2021/10/12 07:14:25;;;;;;;7.83;3.60;;;;;;;7.22;100.00;100718.97;5024219;28;20577;-76
2021/10/12 07:16:52;;;;;;;10.00;3.50;;;;;;;7.30;100.00;100711.97;5026794;28;20575;-76
2021/10/12 07:19:18;;;;;;;9.33;3.70;;;;;;;7.37;100.00;100711.88;5022192;28;20223;-76
2021/10/12 07:21:46;;;;;;;11.47;3.90;;;;;;;7.39;100.00;100717.06;5024047;28;20576;-75
2021/10/12 07:24:13;;;;;;;10.30;3.23;;;;;;;7.34;100.00;100704.13;5022246;28;20274;-74
2021/10/12 07:26:40;;;;;;;8.37;3.37;;;;;;;7.35;100.00;100712.78;5026279;28;20203;-75
2021/10/12 07:29:06;;;;;;;6.23;3.17;;;;;;;7.38;100.00;100718.78;5021825;28;20252;-76
2021/10/12 07:31:33;;;;;;;12.83;3.50;;;;;;;7.37;100.00;100709.28;5025981;28;20215;-75
2021/10/12 07:34:00;;;;;;;5.87;3.03;;;;;;;7.42;100.00;100710.97;5022487;28;20204;-75
2021/10/12 07:36:26;;;;;;;6.93;3.10;;;;;;;7.41;100.00;100714.47;5025486;28;20772;-76
2021/10/12 07:38:54;;;;;;;9.67;3.20;;;;;;;7.47;100.00;100714.38;5021944;28;20604;-75
2021/10/12 07:41:20;;;;;;;6.50;2.73;;;;;;;7.56;100.00;100711.66;5024958;28;20215;-74
2021/10/12 07:43:46;;;;;;;12.60;3.50;;;;;;;7.59;100.00;100714.22;5021302;28;20224;-75
2021/10/12 07:46:13;;;;;;;7.87;3.40;;;;;;;7.64;100.00;100707.25;5024735;28;20211;-76
2021/10/12 07:48:39;;;;;;;9.30;3.00;;;;;;;7.66;100.00;100707.22;5022868;28;20982;-76
2021/10/12 07:51:06;;;;;;;9.40;3.40;;;;;;;7.63;100.00;100702.91;5023616;28;20219;-75
2021/10/12 07:53:35;;;;;;;7.23;3.10;;;;;;;7.67;100.00;100698.53;5024645;28;20677;-75
2021/10/12 07:56:05;;;;;;;8.53;3.30;;;;;;;7.69;100.00;100704.59;5022600;28;20211;-75
2021/10/12 07:58:32;;;;;;;8.63;3.50;;;;;;;7.71;100.00;100687.25;5023931;28;20274;-74
2021/10/12 08:00:58;;;;;;;6.60;3.27;;;;;;;7.73;100.00;100688.09;5024237;28;20422;-75
2021/10/12 08:03:24;;;;;;;14.43;3.67;;;;;;;7.73;100.00;100688.09;5024383;28;20239;-75
2021/10/12 08:05:51;;;;;;;8.20;4.13;;;;;;;7.74;100.00;100690.69;5022699;28;20219;-75
2021/10/12 08:08:17;;;;;;;10.57;3.47;;;;;;;7.71;100.00;100698.50;5024765;28;20596;-76
2021/10/12 08:10:44;;;;;;;6.73;3.73;;;;;;;7.74;100.00;100690.69;5022605;28;20609;-75
2021/10/12 08:13:15;;;;;;;6.67;3.33;;;;;;;7.76;100.00;100695.84;5024581;28;20197;-74
2021/10/12 08:15:45;;;;;;;11.50;3.83;;;;;;;7.74;100.00;100690.69;5022079;28;20382;-75
2021/10/12 08:18:11;;;;;;;8.07;3.67;;;;;;;7.73;100.00;100685.50;5023792;28;20227;-75
2021/10/12 08:20:38;;;;;;;6.63;3.90;;;;;;;7.73;100.00;100693.28;5021638;28;20294;-76
2021/10/12 08:23:06;;;;;;;10.50;4.07;;;;;;;7.73;100.00;100695.88;5024274;28;20220;-75
2021/10/12 08:25:32;;;;;;;13.03;4.73;;;;;;;7.75;100.00;100692.38;5021980;28;20203;-73
2021/10/12 08:27:59;;;;;;;9.40;4.10;;;;;;;7.77;100.00;100695.84;5023711;28;20688;-75
2021/10/12 08:30:26;;;;;;;8.60;4.40;;;;;;;7.81;100.00;100699.25;5023985;28;20208;-75
2021/10/12 08:32:53;;;;;;;6.10;4.37;;;;;;;7.86;100.00;100694.84;5023194;28;20216;-74
2021/10/12 08:35:20;;;;;;;10.70;4.50;;;;;;;7.95;100.00;100684.31;5037485;28;20200;-75
2021/10/12 08:37:46;;;;;;;8.90;5.57;;;;;;;8.02;100.00;100682.50;5023807;28;20200;-75
2021/10/12 08:40:14;;;;;;;12.67;6.00;;;;;;;8.13;100.00;100679.75;5036981;28;20223;-74
2021/10/12 08:42:46;;;;;;;8.83;5.37;;;;;;;8.10;100.00;100680.63;5024379;28;20717;-75
2021/10/12 08:45:14;;;;;;;10.23;4.87;;;;;;;8.08;100.00;100678.97;5022126;28;20747;-75
2021/10/12 08:47:42;;;;;;;8.23;4.93;;;;;;;8.11;100.00;100671.13;5023996;28;20689;-76
2021/10/12 08:50:11;;;;;;;9.23;5.13;;;;;;;8.08;100.00;100668.56;5022222;28;20529;-75
2021/10/12 08:52:38;;;;;;;9.30;4.40;;;;;;;8.09;100.00;100671.16;5022366;28;20745;-75
2021/10/12 08:55:06;;;;;;;6.53;4.63;;;;;;;8.14;100.00;100668.47;5018561;28;20274;-74
2021/10/12 08:57:34;;;;;;;7.60;4.60;;;;;;;8.17;100.00;100659.78;5019147;28;20226;-76
2021/10/12 09:00:02;;;;;;;12.47;8.40;;;;;;;8.23;100.00;100657.94;5019594;28;20224;-74
2021/10/12 09:02:29;;;;;;;8.23;5.03;;;;;;;8.27;100.00;100659.59;5017327;28;20210;-76
2021/10/12 09:04:57;;;;;;;9.03;4.33;;;;;;;8.34;100.00;100658.63;5022828;28;20236;-75
2021/10/12 09:07:25;;;;;;;7.43;4.17;;;;;;;8.37;100.00;100660.28;5021231;28;20216;-76
2021/10/12 09:09:53;;;;;;;8.60;4.13;;;;;;;8.45;100.00;100661.06;5022558;28;20229;-75
2021/10/12 09:12:41;;;;;;;7.03;5.13;;;;;;;8.45;100.00;100658.47;5021428;28;20991;-76
2021/10/12 09:15:09;;;;;;;10.93;4.20;;;;;;;8.52;100.00;100654.88;5022391;28;20207;-76
2021/10/12 09:17:37;;;;;;;9.13;4.33;;;;;;;8.57;100.00;100652.22;5022732;28;20668;-75
2021/10/12 09:20:29;;;;;;;8.83;4.80;;;;;;;8.69;100.00;100653.75;5021585;28;20267;-74
2021/10/12 09:23:10;;;;;;;11.17;4.40;;;;;;;8.76;100.00;100652.75;5018187;28;20683;-73
2021/10/12 09:25:39;;;;;;;18.73;5.67;;;;;;;8.84;100.00;100650.84;5021607;28;20663;-76
2021/10/12 09:28:05;;;;;;;9.30;3.97;;;;;;;8.84;100.00;100655.19;5021925;28;20220;-74
2021/10/12 09:30:33;;;;;;;7.47;3.30;;;;;;;8.92;100.00;100648.13;5019891;28;20310;-73
2021/10/12 09:33:05;;;;;;;5.60;3.30;;;;;;;8.94;100.00;100640.28;5021780;28;20209;-75
2021/10/12 09:35:33;;;;;;;4.57;3.00;;;;;;;8.95;100.00;100657.59;5021467;28;20210;-75
2021/10/12 09:38:08;;;;;;;5.57;2.27;;;;;;;9.01;100.00;100628.88;5022977;28;20217;-75
2021/10/12 09:40:36;;;;;;;5.23;2.10;;;;;;;8.99;100.00;100633.22;5011661;22;20238;-75
2021/10/12 09:43:03;;;;;;;3.43;2.00;;;;;;;9.01;100.00;100634.09;4983583;28;20315;-75
2021/10/12 09:45:41;;;;;;;3.87;1.70;;;;;;;8.97;100.00;100637.63;4984112;28;20217;-75
2021/10/12 09:48:27;;;;;;;2.57;1.80;;;;;;;8.94;100.00;100627.28;4981413;28;20200;-75
2021/10/12 09:51:08;;;;;;;3.07;1.87;;;;;;;8.96;100.00;100626.38;4982687;28;20232;-75
2021/10/12 09:53:35;;;;;;;1.60;1.30;;;;;;;8.94;100.00;100622.94;4976053;28;20215;-75
2021/10/12 09:56:02;;;;;;;3.03;1.50;;;;;;;8.90;100.00;100629.09;4983322;28;20719;-75
2021/10/12 09:58:34;;;;;;;2.37;1.43;;;;;;;8.85;100.00;100630.94;4983031;28;20214;-75
2021/10/12 10:01:02;;;;;;;1.53;1.43;;;;;;;8.74;100.00;100618.09;4980051;28;20198;-76
2021/10/12 10:03:29;;;;;;;3.07;1.53;;;;;;;8.71;100.00;100610.38;4983253;28;20224;-75
2021/10/12 10:05:58;;;;;;;2.40;1.80;;;;;;;8.73;100.00;100611.22;4984005;28;20216;-76
2021/10/12 10:08:29;;;;;;;4.77;2.97;;;;;;;8.65;100.00;100605.28;4982929;28;20210;-76
2021/10/12 10:10:57;;;;;;;4.63;2.80;;;;;;;8.67;100.00;100609.59;4984396;28;20229;-76
2021/10/12 10:13:25;;;;;;;3.77;1.70;;;;;;;8.63;100.00;100599.25;4981276;28;20211;-76
2021/10/12 10:15:52;;;;;;;5.73;1.73;;;;;;;8.61;100.00;100604.47;4984227;28;20219;-76
2021/10/12 10:18:19;;;;;;;2.97;2.10;;;;;;;8.57;100.00;100595.03;4985022;28;20199;-76
2021/10/12 10:20:50;;;;;;;3.90;1.83;;;;;;;8.57;100.00;100589.84;4984244;28;20257;-76
2021/10/12 10:23:46;;;;;;;4.67;1.90;;;;;;;8.50;100.00;100596.03;4983500;28;20202;-76
2021/10/12 10:26:24;;;;;;;1.73;1.50;;;;;;;8.42;100.00;100600.47;4980117;28;20208;-76
2021/10/12 10:28:53;;;;;;;4.47;1.83;;;;;;;8.44;100.00;100588.34;4983818;28;20218;-76
2021/10/12 10:31:38;;;;;;;2.70;1.97;;;;;;;8.47;100.00;100583.94;4979483;28;20210;-76
2021/10/12 10:34:36;;;;;;;1.77;1.67;;;;;;;8.54;100.00;100584.69;4980267;28;20738;-75
2021/10/12 10:37:39;;;;;;;2.67;2.27;;;;;;;8.68;100.00;100582.69;4981661;28;20212;-76
2021/10/12 10:40:25;;;;;;;3.30;1.97;;;;;;;8.71;100.00;100580.03;4978705;28;20233;-75
2021/10/12 10:43:02;;;;;;;5.77;2.63;;;;;;;8.78;100.00;100583.38;4978724;28;20213;-76
2021/10/12 10:45:43;;;;;;;2.73;2.10;;;;;;;8.85;100.00;100569.38;4985733;28;20236;-75
2021/10/12 10:48:11;;;;;;;2.60;2.40;;;;;;;8.88;100.00;100576.25;4985293;28;20217;-75
2021/10/12 10:50:38;;;;;;;4.57;2.63;;;;;;;8.96;100.00;100563.09;4986345;28;20227;-76
2021/10/12 10:53:06;;;;;;;2.83;2.40;;;;;;;8.98;100.00;100556.97;4980753;28;20264;-76
2021/10/12 10:55:34;;;;;;;2.93;2.50;;;;;;;9.00;100.00;100562.16;4984698;28;20206;-76
2021/10/12 10:58:06;;;;;;;4.20;2.43;;;;;;;8.98;100.00;100559.56;4983355;28;20237;-76
2021/10/12 11:00:48;;;;;;;4.40;2.00;;;;;;;9.14;100.00;100546.25;4984112;28;20230;-76
2021/10/12 11:03:40;;;;;;;5.13;2.30;;;;;;;9.11;100.00;100544.56;4987047;28;20216;-76
2021/10/12 11:06:17;;;;;;;5.67;2.30;;;;;;;9.24;100.00;100538.22;4977793;28;20207;-75
2021/10/12 11:08:58;;;;;;;4.93;2.67;;;;;;;9.25;100.00;100549.47;4982742;28;20238;-75
2021/10/12 11:11:24;;;;;;;5.87;2.30;;;;;;;9.32;100.00;100550.19;4982533;28;20202;-76
2021/10/12 11:13:53;;;;;;;2.47;1.90;;;;;;;9.31;100.00;100541.53;4982175;28;20560;-76
2021/10/12 11:16:20;;;;;;;4.40;2.57;;;;;;;9.39;100.00;100550.03;4990864;28;20212;-76
2021/10/12 11:18:59;;;;;;;4.33;1.80;;;;;;;9.36;100.00;100549.25;4984185;28;20213;-75
2021/10/12 11:21:25;;;;;;;3.67;2.20;;;;;;;9.42;100.00;100541.28;4980339;28;20269;-75
2021/10/12 11:23:54;;;;;;;2.73;1.90;;;;;;;9.55;100.00;100531.44;4981421;28;20227;-75